Time;durP1;ratioP1;P1;durP2;ratioP2;P2;SDS_P1;SDS_P2;PMS_P1;PMS_P2;Temp;Humidity;BMP_temperature;BMP_pressure;BME280_temperature;BME280_humidity;BME280_pressure;Samples;Min_cycle;Max_cycle;Signal;HPM_P1;HPM_P2
2022/12/13 00:04:32;;;;;;;5.43;3.92;;;16.20;56.20;;;;;;10446756;28;20029;-54
2022/12/13 00:09:32;;;;;;;5.93;3.95;;;16.20;56.20;;;;;;10446471;28;20095;-53
2022/12/13 00:14:33;;;;;;;5.22;4.25;;;16.20;56.10;;;;;;10444972;28;20064;-54
2022/12/13 00:19:34;;;;;;;4.72;3.90;;;16.20;56.00;;;;;;10440277;28;20033;-53
2022/12/13 00:24:35;;;;;;;6.30;3.90;;;16.20;55.90;;;;;;10438448;28;20059;-53
2022/12/13 00:29:35;;;;;;;6.20;4.03;;;16.20;55.80;;;;;;10452035;28;20024;-54
2022/12/13 00:34:36;;;;;;;6.28;4.35;;;16.30;55.70;;;;;;10413641;28;20041;-55
2022/12/13 00:39:37;;;;;;;5.82;3.95;;;16.20;55.60;;;;;;10404959;28;20072;-54
2022/12/13 00:44:38;;;;;;;5.40;3.58;;;16.30;55.60;;;;;;10408419;28;20053;-55
2022/12/13 00:49:39;;;;;;;6.68;3.88;;;16.20;55.60;;;;;;10453221;28;20049;-55
2022/12/13 00:54:39;;;;;;;6.75;3.72;;;16.20;55.60;;;;;;10424497;28;20041;-55
2022/12/13 00:59:40;;;;;;;6.05;3.63;;;16.20;55.50;;;;;;10411086;28;20120;-55
2022/12/13 01:04:40;;;;;;;4.70;3.38;;;16.30;55.50;;;;;;10412206;28;20544;-55
2022/12/13 01:09:41;;;;;;;5.63;3.90;;;16.20;55.40;;;;;;10442481;28;20025;-57
2022/12/13 01:14:42;;;;;;;5.20;3.88;;;16.20;55.40;;;;;;10452749;28;20029;-54
2022/12/13 01:19:43;;;;;;;5.75;3.90;;;16.20;55.40;;;;;;10451655;28;20048;-55
2022/12/13 01:24:43;;;;;;;4.55;3.38;;;16.30;55.30;;;;;;10417433;28;20083;-52
2022/12/13 01:29:44;;;;;;;5.78;3.88;;;16.20;55.30;;;;;;10441654;28;20036;-53
2022/12/13 01:34:45;;;;;;;6.13;4.90;;;16.20;55.20;;;;;;10442332;28;20039;-53
2022/12/13 01:39:45;;;;;;;5.25;3.95;;;16.20;55.20;;;;;;10452187;28;20017;-55
2022/12/13 01:44:55;;;;;;;6.53;4.13;;;16.20;55.20;;;;;;10410082;28;20127;-49
2022/12/13 01:49:58;;;;;;;;;;;16.20;55.10;;;;;;10410835;28;20048;-48
2022/12/13 01:55:03;;;;;;;6.55;4.43;;;16.20;55.10;;;;;;10391766;28;19940;-52
2022/12/13 02:00:06;;;;;;;4.95;4.05;;;16.20;55.20;;;;;;10428030;28;20044;-51
2022/12/13 02:05:21;;;;;;;5.88;4.40;;;16.20;54.90;;;;;;10436753;28;20017;-50
2022/12/13 02:10:22;;;;;;;5.32;4.10;;;16.20;55.00;;;;;;10425992;28;20392;-52
2022/12/13 02:15:24;;;;;;;6.03;3.70;;;16.20;54.90;;;;;;10434589;28;20036;-51
2022/12/13 02:21:14;;;;;;;8.35;4.47;;;16.20;54.90;;;;;;10424144;28;20022;-51
2022/12/13 02:27:02;;;;;;;5.85;4.43;;;16.20;54.90;;;;;;10430874;28;20049;-51
2022/12/13 02:32:15;;;;;;;4.75;3.53;;;16.20;54.90;;;;;;10427890;28;20469;-51
2022/12/13 02:37:27;;;;;;;5.50;3.60;;;16.20;54.70;;;;;;10408511;28;20037;-49
2022/12/13 02:42:43;;;;;;;5.75;3.70;;;16.20;54.70;;;;;;10407374;28;20055;-48
2022/12/13 02:47:45;;;;;;;5.05;3.55;;;16.20;54.90;;;;;;10421524;28;20112;-50
2022/12/13 02:52:46;;;;;;;6.65;5.05;;;16.20;54.80;;;;;;10406830;28;20021;-52
2022/12/13 02:57:47;;;;;;;5.25;3.70;;;16.20;54.70;;;;;;10434696;28;20043;-50
2022/12/13 03:03:52;;;;;;;4.65;3.33;;;16.20;54.70;;;;;;10419604;28;20022;-51
2022/12/13 03:09:10;;;;;;;4.10;3.53;;;16.20;54.70;;;;;;10397529;28;20056;-48
2022/12/13 03:14:12;;;;;;;4.90;3.53;;;16.30;55.60;;;;;;10448611;28;20037;-49
2022/12/13 03:19:13;;;;;;;5.93;3.83;;;16.50;56.30;;;;;;10430495;28;20018;-51
2022/12/13 03:24:20;;;;;;;4.75;3.65;;;16.50;56.70;;;;;;10406517;28;20071;-53
2022/12/13 03:29:20;;;;;;;5.93;3.72;;;16.50;56.60;;;;;;10413697;28;20107;-52
2022/12/13 03:34:21;;;;;;;4.70;3.10;;;16.40;57.00;;;;;;10420319;28;20590;-50
2022/12/13 03:39:22;;;;;;;6.07;3.97;;;16.40;57.00;;;;;;10405422;28;20384;-49
2022/12/13 03:44:22;;;;;;;4.68;3.15;;;16.30;57.10;;;;;;10406082;28;20064;-49
2022/12/13 03:49:23;;;;;;;4.78;3.67;;;16.30;57.10;;;;;;10406627;28;20056;-50
2022/12/13 03:54:24;;;;;;;5.78;4.00;;;16.30;57.10;;;;;;10404741;28;20112;-51
2022/12/13 03:59:25;;;;;;;4.00;3.35;;;16.20;57.00;;;;;;10405615;28;20039;-48
2022/12/13 04:04:26;;;;;;;5.53;3.47;;;16.20;56.90;;;;;;10404280;28;20033;-49
2022/12/13 04:09:27;;;;;;;4.20;3.10;;;16.20;56.80;;;;;;10403999;28;20428;-47
2022/12/13 04:14:27;;;;;;;4.43;3.13;;;16.20;56.60;;;;;;10422114;28;20114;-51
2022/12/13 04:19:28;;;;;;;4.95;3.30;;;16.20;56.60;;;;;;10439885;28;20112;-52
2022/12/13 04:24:29;;;;;;;4.30;3.35;;;16.20;56.40;;;;;;10436457;28;20406;-51
2022/12/13 04:29:30;;;;;;;4.90;3.47;;;16.20;56.30;;;;;;10422148;28;20098;-51
2022/12/13 04:34:31;;;;;;;5.43;4.72;;;16.20;56.20;;;;;;10414648;28;20086;-48
2022/12/13 04:39:32;;;;;;;5.68;3.92;;;16.20;56.20;;;;;;10421188;28;20534;-51
2022/12/13 04:44:32;;;;;;;4.68;3.42;;;16.30;56.30;;;;;;10420314;28;20045;-50
2022/12/13 04:49:34;;;;;;;5.65;3.10;;;16.20;56.40;;;;;;10408186;28;20030;-49
2022/12/13 04:54:34;;;;;;;4.25;3.25;;;16.20;56.60;;;;;;10422804;28;20104;-47
2022/12/13 04:59:36;;;;;;;5.38;3.88;;;16.20;56.70;;;;;;10420320;28;20033;-51
2022/12/13 05:04:36;;;;;;;4.72;3.38;;;16.20;56.50;;;;;;10430953;28;20021;-51
2022/12/13 05:09:37;;;;;;;6.22;3.70;;;16.20;56.30;;;;;;10445026;28;20179;-50
2022/12/13 05:14:38;;;;;;;4.55;3.42;;;16.20;56.30;;;;;;10431630;28;20029;-49
2022/12/13 05:19:38;;;;;;;6.30;4.05;;;16.20;56.10;;;;;;10443461;28;20752;-50
2022/12/13 05:24:39;;;;;;;5.15;3.60;;;16.20;55.90;;;;;;10431928;28;20021;-51
2022/12/13 05:29:40;;;;;;;5.13;3.58;;;16.20;55.70;;;;;;10439930;28;20109;-51
2022/12/13 05:34:40;;;;;;;4.53;3.50;;;16.20;55.70;;;;;;10431240;28;20126;-48
2022/12/13 05:39:41;;;;;;;4.15;3.50;;;16.20;55.50;;;;;;10430152;28;20114;-51
2022/12/13 05:44:42;;;;;;;4.45;3.35;;;16.20;55.50;;;;;;10424169;28;20076;-50
2022/12/13 05:49:43;;;;;;;7.72;3.72;;;16.20;55.40;;;;;;10427959;28;20105;-51
2022/12/13 05:54:43;;;;;;;9.18;3.72;;;16.20;55.40;;;;;;10430923;28;20040;-50
2022/12/13 05:59:44;;;;;;;8.50;3.53;;;16.20;55.70;;;;;;10418714;28;20084;-51
2022/12/13 06:04:45;;;;;;;8.60;3.92;;;16.30;55.80;;;;;;10441395;28;20051;-49
2022/12/13 06:09:45;;;;;;;7.72;4.25;;;16.30;56.00;;;;;;10400841;28;20374;-50
2022/12/13 06:14:46;;;;;;;9.75;3.55;;;16.30;56.70;;;;;;10429409;28;20112;-50
2022/12/13 06:19:47;;;;;;;10.85;3.55;;;16.40;57.50;;;;;;10414979;28;20591;-46
2022/12/13 06:24:47;;;;;;;12.25;4.10;;;16.40;57.40;;;;;;10415515;28;20117;-52
2022/12/13 06:29:48;;;;;;;10.65;4.38;;;16.40;57.40;;;;;;10454487;28;20111;-47
2022/12/13 06:34:49;;;;;;;13.07;5.13;;;16.20;56.50;;;;;;10413932;28;20021;-52
2022/12/13 06:39:49;;;;;;;12.38;5.13;;;16.10;55.90;;;;;;10420818;28;20108;-50
2022/12/13 06:44:51;;;;;;;11.75;5.38;;;16.10;54.90;;;;;;10415551;28;20548;-52
2022/12/13 06:49:52;;;;;;;12.38;5.13;;;16.10;54.10;;;;;;10426838;28;20022;-53
2022/12/13 06:54:53;;;;;;;11.38;4.95;;;16.10;53.80;;;;;;10446164;28;20025;-53
2022/12/13 06:59:53;;;;;;;13.38;5.70;;;16.10;54.20;;;;;;10446623;28;20041;-51
2022/12/13 07:04:55;;;;;;;17.70;6.30;;;16.30;55.00;;;;;;10447440;28;20468;-52
2022/12/13 07:09:56;;;;;;;14.77;5.57;;;16.30;55.20;;;;;;10448631;28;20053;-52
2022/12/13 07:14:57;;;;;;;13.00;5.72;;;16.40;54.20;;;;;;10439732;28;20142;-53
2022/12/13 07:19:57;;;;;;;14.30;5.53;;;16.20;54.90;;;;;;10441031;28;20063;-52
2022/12/13 07:24:58;;;;;;;13.82;4.90;;;16.00;55.10;;;;;;10446545;28;20527;-51
2022/12/13 07:29:59;;;;;;;11.77;4.82;;;16.00;54.80;;;;;;10453571;28;20112;-53
2022/12/13 07:35:00;;;;;;;12.80;6.25;;;16.00;54.80;;;;;;10421325;28;20025;-49
2022/12/13 07:40:00;;;;;;;7.70;5.57;;;16.20;53.60;;;;;;10405638;28;20475;-53
2022/12/13 07:45:01;;;;;;;11.20;5.07;;;16.10;53.40;;;;;;10447350;28;20076;-51
2022/12/13 07:50:02;;;;;;;9.88;4.85;;;16.10;53.30;;;;;;10416384;28;20508;-51
2022/12/13 07:55:04;;;;;;;9.68;4.70;;;16.10;52.90;;;;;;10410156;28;20031;-53
2022/12/13 08:00:06;;;;;;;9.50;5.78;;;15.90;53.70;;;;;;10431032;28;20013;-51
2022/12/13 08:05:07;;;;;;;12.77;4.85;;;15.70;54.00;;;;;;10423538;28;20032;-51
2022/12/13 08:10:08;;;;;;;11.38;4.78;;;15.70;54.80;;;;;;10446226;28;20082;-49
2022/12/13 08:15:09;;;;;;;6.15;3.83;;;15.70;55.60;;;;;;10440895;28;20041;-51
2022/12/13 08:20:10;;;;;;;8.80;4.57;;;15.60;55.60;;;;;;10443079;28;20045;-47
2022/12/13 08:25:11;;;;;;;12.20;5.47;;;15.60;55.10;;;;;;10422148;28;20013;-52
2022/12/13 08:30:12;;;;;;;10.32;4.80;;;15.70;54.40;;;;;;10438746;28;20498;-50
2022/12/13 08:35:13;;;;;;;10.43;5.30;;;15.70;55.20;;;;;;10442308;28;20033;-51
2022/12/13 08:40:13;;;;;;;8.27;4.80;;;15.60;54.30;;;;;;10426941;28;20531;-48
2022/12/13 08:45:14;;;;;;;8.95;5.55;;;15.70;54.00;;;;;;10426581;28;20056;-50
2022/12/13 08:50:15;;;;;;;6.25;4.30;;;15.80;53.90;;;;;;10429986;28;20017;-52
2022/12/13 08:55:16;;;;;;;6.43;4.28;;;15.70;54.60;;;;;;10431214;28;20106;-51
2022/12/13 09:00:19;;;;;;;6.93;4.80;;;15.70;54.60;;;;;;10434552;28;20005;-50
2022/12/13 09:05:20;;;;;;;9.73;4.75;;;15.60;55.00;;;;;;10452012;28;20071;-50
2022/12/13 09:10:21;;;;;;;7.35;4.22;;;15.60;55.40;;;;;;10450167;28;20163;-52
2022/12/13 09:15:22;;;;;;;7.00;3.95;;;15.70;55.10;;;;;;10438083;28;20038;-50
2022/12/13 09:20:23;;;;;;;6.78;4.03;;;15.60;55.50;;;;;;10425911;28;20021;-51
2022/12/13 09:25:23;;;;;;;8.10;4.80;;;15.50;56.00;;;;;;10420779;28;20491;-50
2022/12/13 09:30:24;;;;;;;8.57;4.15;;;15.50;55.90;;;;;;10430446;28;20036;-51
2022/12/13 09:35:25;;;;;;;7.43;4.20;;;15.50;56.20;;;;;;10447387;28;20064;-50
2022/12/13 09:40:27;;;;;;;6.43;3.63;;;15.60;56.60;;;;;;10449471;28;20453;-51
2022/12/13 09:45:29;;;;;;;7.20;4.07;;;15.50;56.70;;;;;;10438625;28;20048;-49
2022/12/13 09:50:34;;;;;;;6.60;3.70;;;15.50;56.60;;;;;;10436471;28;20451;-52
2022/12/13 09:55:44;;;;;;;6.53;4.00;;;15.50;56.70;;;;;;10444024;28;20044;-49
2022/12/13 10:00:49;;;;;;;8.00;3.80;;;15.40;57.10;;;;;;10450985;28;20104;-47
2022/12/13 10:06:12;;;;;;;5.95;4.35;;;15.50;57.00;;;;;;10439325;28;20033;-50
2022/12/13 10:11:15;;;;;;;7.90;4.68;;;15.50;56.70;;;;;;10437675;28;20028;-51
2022/12/13 10:16:43;;;;;;;5.35;3.83;;;15.50;56.90;;;;;;10439736;28;20048;-50
2022/12/13 10:21:45;;;;;;;5.78;4.13;;;15.50;57.40;;;;;;10434779;28;20681;-50
2022/12/13 10:26:47;;;;;;;6.28;3.88;;;15.50;57.40;;;;;;10438324;28;20033;-51
2022/12/13 10:31:51;;;;;;;6.40;5.13;;;15.40;57.70;;;;;;10443503;28;20385;-49
2022/12/13 10:36:52;;;;;;;6.82;5.07;;;15.40;56.30;;;;;;10430149;28;20044;-52
2022/12/13 10:42:04;;;;;;;11.13;6.05;;;15.50;56.30;;;;;;10439561;28;20032;-50
2022/12/13 10:47:17;;;;;;;8.30;4.88;;;15.50;56.30;;;;;;10425306;28;20156;-53
2022/12/13 10:52:38;;;;;;;6.30;4.70;;;15.60;56.10;;;;;;10394540;28;20028;-49
2022/12/13 10:57:39;;;;;;;6.95;4.38;;;15.50;57.40;;;;;;10409266;28;20485;-51
2022/12/13 11:02:40;;;;;;;5.82;4.03;;;15.40;57.80;;;;;;10428771;28;20032;-49
2022/12/13 11:07:41;;;;;;;7.00;5.03;;;15.40;57.80;;;;;;10422414;28;20033;-51
2022/12/13 11:12:42;;;;;;;8.07;4.28;;;15.40;57.70;;;;;;10435493;28;20392;-52
2022/12/13 11:17:53;;;;;;;5.90;4.68;;;15.40;57.80;;;;;;10444936;28;20047;-52
2022/12/13 11:23:06;;;;;;;6.90;4.90;;;15.40;58.00;;;;;;10420820;28;20033;-50
2022/12/13 11:28:37;;;;;;;8.18;5.93;;;15.40;57.60;;;;;;10414276;28;20028;-52
2022/12/13 11:34:18;;;;;;;6.60;4.82;;;15.60;56.70;;;;;;10450124;28;20500;-52
2022/12/13 11:39:26;;;;;;;7.97;5.28;;;15.60;56.50;;;;;;10433788;28;20048;-49
2022/12/13 11:44:44;;;;;;;7.00;5.13;;;15.60;56.20;;;;;;10434363;28;20442;-50
2022/12/13 11:49:48;;;;;;;8.30;6.15;;;15.60;57.20;;;;;;10419528;28;20043;-49
2022/12/13 11:54:55;;;;;;;7.60;4.25;;;15.60;57.00;;;;;;10435600;28;20115;-49
2022/12/13 12:00:22;;;;;;;6.47;4.57;;;15.50;57.70;;;;;;10445009;28;20030;-52
2022/12/13 12:05:31;;;;;;;8.07;4.93;;;15.40;57.80;;;;;;10443627;28;20380;-52
2022/12/13 12:10:42;;;;;;;7.50;5.32;;;15.40;57.60;;;;;;10403204;28;20499;-51
2022/12/13 12:16:04;;;;;;;6.13;5.10;;;15.50;57.20;;;;;;10428916;28;20091;-51
2022/12/13 12:21:37;;;;;;;6.65;4.30;;;15.60;56.70;;;;;;10411374;28;20108;-49
2022/12/13 12:27:36;;;;;;;7.47;4.60;;;15.50;57.00;;;;;;10402408;28;20366;-49
2022/12/13 12:33:03;;;;;;;6.90;4.45;;;15.50;57.10;;;;;;10440275;28;20112;-50
2022/12/13 12:38:32;;;;;;;6.55;5.00;;;15.50;57.20;;;;;;10404851;28;20033;-48
2022/12/13 12:43:41;;;;;;;6.32;4.47;;;15.60;56.90;;;;;;10441221;28;20090;-51
2022/12/13 12:49:17;;;;;;;6.28;4.30;;;15.50;57.00;;;;;;10450342;28;20136;-49
2022/12/13 12:55:02;;;;;;;6.45;4.22;;;15.50;57.00;;;;;;10448847;28;20025;-52
2022/12/13 13:00:22;;;;;;;5.70;4.22;;;15.60;56.90;;;;;;10444650;28;20028;-51
2022/12/13 13:05:39;;;;;;;6.05;4.32;;;15.50;57.30;;;;;;10448190;28;20017;-51
2022/12/13 13:10:41;;;;;;;7.20;4.53;;;15.50;57.30;;;;;;10439253;28;20128;-48
2022/12/13 13:15:51;;;;;;;5.43;3.40;;;15.40;57.50;;;;;;10428442;28;20064;-52
2022/12/13 13:21:23;;;;;;;8.40;6.20;;;15.40;58.20;;;;;;10437528;28;20036;-50
2022/12/13 13:26:31;;;;;;;13.93;4.60;;;15.50;57.00;;;;;;10438002;28;20478;-51
2022/12/13 13:31:55;;;;;;;9.32;5.90;;;15.40;58.00;;;;;;10444257;28;20375;-52
2022/12/13 13:36:58;;;;;;;10.60;5.85;;;15.60;57.50;;;;;;10433900;28;20033;-52
2022/12/13 13:42:33;;;;;;;10.93;5.38;;;15.90;57.00;;;;;;10411438;28;20090;-51
2022/12/13 13:47:37;;;;;;;10.05;5.20;;;16.00;57.60;;;;;;10445587;28;20132;-52
2022/12/13 13:53:30;;;;;;;9.80;5.47;;;16.00;58.10;;;;;;10410041;28;20021;-52
2022/12/13 13:59:03;;;;;;;12.52;5.40;;;16.00;58.30;;;;;;10441204;28;20047;-53
2022/12/13 14:04:51;;;;;;;19.33;5.53;;;15.90;59.00;;;;;;10421232;28;20070;-52
2022/12/13 14:10:23;;;;;;;16.60;6.25;;;15.80;59.00;;;;;;10431635;28;20687;-53
2022/12/13 14:16:18;;;;;;;37.25;7.45;;;15.90;59.20;;;;;;10442290;28;20064;-48
2022/12/13 14:21:52;;;;;;;32.85;9.38;;;15.90;59.40;;;;;;10444789;28;20383;-49
2022/12/13 14:27:23;;;;;;;28.90;7.80;;;15.80;60.00;;;;;;10435580;28;20037;-49
2022/12/13 14:32:34;;;;;;;29.60;8.30;;;15.80;59.60;;;;;;10426966;28;20440;-53
2022/12/13 14:37:36;;;;;;;37.92;8.23;;;15.70;60.00;;;;;;10426295;28;20033;-53
2022/12/13 14:42:37;;;;;;;30.10;6.85;;;15.80;60.20;;;;;;10426720;28;20020;-52
2022/12/13 14:47:42;;;;;;;31.05;9.48;;;15.80;60.30;;;;;;10429809;28;20083;-52
2022/12/13 14:52:44;;;;;;;35.05;8.57;;;15.80;60.50;;;;;;10424737;28;20025;-49
2022/12/13 14:57:52;;;;;;;30.15;9.55;;;15.70;60.50;;;;;;10429167;28;20551;-49
2022/12/13 15:02:58;;;;;;;37.15;10.35;;;15.70;60.80;;;;;;10427379;28;20405;-52
2022/12/13 15:08:00;;;;;;;28.20;7.63;;;15.80;60.30;;;;;;10430934;28;20036;-48
2022/12/13 15:13:00;;;;;;;31.52;7.82;;;15.60;60.30;;;;;;10444154;28;20028;-53
2022/12/13 15:18:22;;;;;;;29.30;7.25;;;15.60;59.50;;;;;;10430127;28;20175;-53
2022/12/13 15:23:32;;;;;;;21.85;7.15;;;15.60;59.80;;;;;;10445441;28;20029;-53
2022/12/13 15:28:39;;;;;;;24.90;7.93;;;15.50;59.20;;;;;;10439119;28;20021;-52
2022/12/13 15:33:40;;;;;;;23.75;7.70;;;15.70;58.90;;;;;;10428713;28;20037;-52
2022/12/13 15:39:10;;;;;;;19.15;8.13;;;15.70;57.60;;;;;;10428808;28;20096;-53
2022/12/13 15:44:32;;;;;;;16.73;7.97;;;15.80;57.40;;;;;;10420693;28;20401;-49
2022/12/13 15:49:39;;;;;;;25.75;8.05;;;15.90;57.10;;;;;;10441137;28;20056;-53
2022/12/13 15:54:52;;;;;;;20.33;7.60;;;15.70;57.20;;;;;;10426751;28;20107;-49
2022/12/13 16:00:19;;;;;;;27.02;8.52;;;15.90;56.90;;;;;;10425071;28;20463;-53
2022/12/13 16:05:35;;;;;;;20.95;6.28;;;15.80;58.10;;;;;;10441602;28;20021;-53
2022/12/13 16:10:36;;;;;;;15.35;6.28;;;15.80;58.30;;;;;;10432774;28;20033;-52
2022/12/13 16:15:50;;;;;;;20.25;6.85;;;15.80;58.60;;;;;;10441003;28;20044;-51
2022/12/13 16:20:50;;;;;;;18.40;6.35;;;15.90;58.70;;;;;;10428442;28;20029;-54
2022/12/13 16:25:51;;;;;;;16.40;5.80;;;15.90;58.70;;;;;;10437197;28;21001;-52
2022/12/13 16:30:51;;;;;;;22.73;7.13;;;15.90;58.60;;;;;;10423460;28;20029;-50
2022/12/13 16:35:54;;;;;;;16.52;6.55;;;16.00;58.40;;;;;;10432550;28;20029;-52
2022/12/13 16:41:00;;;;;;;12.80;5.93;;;16.10;58.00;;;;;;10425661;28;20022;-51
2022/12/13 16:46:03;;;;;;;21.08;6.57;;;16.10;58.30;;;;;;10402600;28;20046;-54
2022/12/13 16:51:05;;;;;;;21.13;5.70;;;16.10;58.60;;;;;;10415252;28;20029;-53
2022/12/13 16:56:10;;;;;;;15.63;5.18;;;16.10;58.60;;;;;;10435569;28;20110;-53
2022/12/13 17:01:14;;;;;;;22.98;7.85;;;16.10;59.10;;;;;;10435594;28;20023;-49
2022/12/13 17:06:20;;;;;;;10.05;5.95;;;16.30;57.80;;;;;;10441257;28;20563;-53
2022/12/13 17:11:21;;;;;;;12.23;6.80;;;16.40;57.50;;;;;;10423330;28;20063;-51
2022/12/13 17:16:21;;;;;;;19.63;8.35;;;16.60;57.10;;;;;;10433630;28;20041;-53
2022/12/13 17:21:24;;;;;;;19.25;9.02;;;17.00;58.20;;;;;;10429636;28;20044;-53
2022/12/13 17:26:27;;;;;;;17.70;8.52;;;17.10;60.50;;;;;;10442069;28;20427;-53
2022/12/13 17:31:28;;;;;;;15.43;9.27;;;17.00;62.10;;;;;;10430724;28;20794;-53
2022/12/13 17:36:30;;;;;;;15.38;8.38;;;17.00;60.90;;;;;;10420748;28;20364;-50
2022/12/13 17:41:30;;;;;;;21.15;10.82;;;16.90;61.60;;;;;;10443277;28;20032;-53
2022/12/13 17:46:33;;;;;;;17.00;8.65;;;16.80;62.10;;;;;;10443330;28;20065;-54
2022/12/13 17:51:33;;;;;;;14.93;9.68;;;17.00;62.60;;;;;;10443898;28;20033;-53
2022/12/13 17:56:34;;;;;;;16.00;8.30;;;17.10;62.90;;;;;;10447380;28;20043;-54
2022/12/13 18:01:35;;;;;;;28.10;10.50;;;17.20;61.90;;;;;;10449373;28;20097;-54
2022/12/13 18:06:35;;;;;;;20.73;9.88;;;17.10;61.90;;;;;;10440771;28;20049;-52
2022/12/13 18:11:36;;;;;;;21.08;8.90;;;16.80;62.00;;;;;;10442088;28;20091;-51
2022/12/13 18:16:38;;;;;;;24.13;10.18;;;16.60;62.40;;;;;;10448626;28;20116;-54
2022/12/13 18:21:39;;;;;;;21.02;9.68;;;16.30;62.60;;;;;;10446819;28;20536;-54
2022/12/13 18:26:40;;;;;;;15.90;9.50;;;16.00;62.80;;;;;;10440287;28;20422;-53
2022/12/13 18:31:41;;;;;;;22.65;11.57;;;15.80;63.00;;;;;;10416681;28;20114;-52
2022/12/13 18:36:42;;;;;;;15.68;9.95;;;15.70;62.90;;;;;;10438897;28;20036;-54
2022/12/13 18:41:42;;;;;;;17.02;10.10;;;15.60;62.80;;;;;;10442920;28;20064;-53
2022/12/13 18:46:44;;;;;;;17.90;10.40;;;15.50;62.60;;;;;;10430090;28;20103;-51
2022/12/13 18:51:45;;;;;;;17.95;10.57;;;15.60;62.40;;;;;;10403691;28;20485;-54
2022/12/13 18:56:46;;;;;;;13.00;8.60;;;15.60;62.50;;;;;;10427829;28;20029;-55
2022/12/13 19:01:46;;;;;;;14.60;9.20;;;15.60;62.60;;;;;;10424549;28;20104;-52
2022/12/13 19:06:47;;;;;;;13.68;8.88;;;15.60;62.90;;;;;;10423457;28;20445;-54
2022/12/13 19:11:48;;;;;;;12.98;9.07;;;15.60;62.30;;;;;;10423564;28;20108;-54
2022/12/13 19:16:49;;;;;;;14.68;8.48;;;15.60;62.00;;;;;;10426695;28;20115;-54
2022/12/13 19:21:50;;;;;;;15.82;10.35;;;15.70;62.30;;;;;;10422550;28;20024;-54
2022/12/13 19:26:51;;;;;;;10.07;7.95;;;15.80;62.10;;;;;;10432139;28;20063;-52
2022/12/13 19:31:52;;;;;;;12.88;7.93;;;15.80;62.00;;;;;;10423787;28;20025;-53
2022/12/13 19:36:53;;;;;;;10.85;7.22;;;15.90;61.90;;;;;;10443186;28;20563;-54
2022/12/13 19:41:53;;;;;;;11.02;7.43;;;15.90;61.90;;;;;;10443704;28;20527;-54
2022/12/13 19:46:54;;;;;;;11.80;8.55;;;15.90;62.00;;;;;;10428795;28;20770;-55
2022/12/13 19:51:55;;;;;;;12.57;7.82;;;15.90;61.60;;;;;;10436080;28;20356;-55
2022/12/13 19:56:57;;;;;;;11.05;7.70;;;15.90;62.10;;;;;;10392737;28;20056;-56
2022/12/13 20:01:58;;;;;;;14.20;8.00;;;15.90;61.70;;;;;;10420268;28;20023;-54
2022/12/13 20:06:58;;;;;;;12.57;7.80;;;15.90;61.40;;;;;;10420494;28;20032;-54
2022/12/13 20:11:59;;;;;;;10.55;8.32;;;15.90;61.10;;;;;;10434292;28;20052;-54
2022/12/13 20:17:00;;;;;;;13.73;8.32;;;15.90;61.00;;;;;;10431854;28;20056;-53
2022/12/13 20:22:00;;;;;;;10.50;7.47;;;15.90;60.70;;;;;;10437602;28;20017;-54
2022/12/13 20:27:01;;;;;;;10.68;7.38;;;15.90;60.60;;;;;;10430875;28;20035;-53
2022/12/13 20:32:02;;;;;;;13.00;7.85;;;15.90;60.50;;;;;;10428004;28;20029;-53
2022/12/13 20:37:03;;;;;;;10.60;7.28;;;15.90;60.30;;;;;;10430295;28;20037;-54
2022/12/13 20:42:04;;;;;;;14.23;7.80;;;16.00;60.00;;;;;;10426328;28;20018;-54
2022/12/13 20:47:05;;;;;;;10.90;7.28;;;16.10;59.60;;;;;;10421540;28;20064;-54
2022/12/13 20:52:05;;;;;;;12.50;8.02;;;16.10;59.50;;;;;;10427117;28;20022;-52
2022/12/13 20:57:06;;;;;;;8.93;6.50;;;16.10;59.50;;;;;;10440635;28;20033;-52
2022/12/13 21:02:10;;;;;;;10.95;7.20;;;16.10;59.40;;;;;;10437309;28;20138;-51
2022/12/13 21:07:11;;;;;;;12.90;7.22;;;16.00;59.30;;;;;;10436164;28;20022;-54
2022/12/13 21:12:11;;;;;;;9.85;6.85;;;16.10;59.30;;;;;;10422104;28;20021;-53
2022/12/13 21:17:12;;;;;;;8.75;6.40;;;16.00;59.30;;;;;;10437639;28;20429;-53
2022/12/13 21:22:13;;;;;;;9.70;6.55;;;16.00;59.30;;;;;;10430086;28;20652;-52
2022/12/13 21:27:13;;;;;;;10.27;7.40;;;16.00;59.20;;;;;;10438008;28;20430;-54
2022/12/13 21:32:14;;;;;;;7.40;5.88;;;16.10;59.20;;;;;;10448083;28;20528;-52
2022/12/13 21:37:15;;;;;;;7.72;5.30;;;16.10;58.90;;;;;;10432316;28;20037;-50
2022/12/13 21:42:16;;;;;;;8.32;6.35;;;16.20;58.60;;;;;;10452676;28;20088;-53
2022/12/13 21:47:16;;;;;;;8.40;6.38;;;16.20;58.60;;;;;;10446230;28;20109;-54
2022/12/13 21:52:17;;;;;;;7.45;6.07;;;16.10;58.60;;;;;;10440958;28;20488;-51
2022/12/13 22:02:37;;;;;;;9.35;5.72;;;16.20;58.40;;;;;;10413226;28;20033;-50
2022/12/13 22:07:38;;;;;;;12.88;7.07;;;16.20;58.40;;;;;;10432977;28;20045;-52
2022/12/13 22:12:40;;;;;;;8.32;5.97;;;16.20;58.40;;;;;;10450076;28;20101;-53
2022/12/13 22:17:42;;;;;;;9.27;6.00;;;16.20;58.30;;;;;;10432388;28;20092;-52
2022/12/13 22:22:43;;;;;;;8.10;4.75;;;16.20;58.30;;;;;;10441391;28;20021;-51
2022/12/13 22:27:43;;;;;;;9.10;6.32;;;16.20;58.30;;;;;;10435779;28;20032;-52
2022/12/13 22:32:44;;;;;;;7.10;5.60;;;16.20;58.00;;;;;;10440367;28;20033;-50
2022/12/13 22:37:47;;;;;;;8.27;4.95;;;16.20;57.90;;;;;;10443485;28;20523;-51
2022/12/13 22:42:48;;;;;;;7.53;5.22;;;16.20;57.90;;;;;;10414296;28;20029;-51
2022/12/13 22:47:48;;;;;;;7.15;5.07;;;16.30;57.90;;;;;;10433838;28;20059;-52
2022/12/13 22:52:49;;;;;;;7.45;4.95;;;16.30;57.80;;;;;;10449393;28;20099;-52
2022/12/13 22:57:50;;;;;;;7.68;4.50;;;16.30;57.80;;;;;;10422522;28;20057;-52
2022/12/13 23:02:53;;;;;;;6.75;4.88;;;16.30;57.80;;;;;;10449054;28;20025;-52
2022/12/13 23:07:53;;;;;;;6.47;4.47;;;16.20;57.80;;;;;;10449230;28;20013;-50
2022/12/13 23:13:00;;;;;;;7.53;5.07;;;16.20;57.70;;;;;;10435291;28;20029;-51
2022/12/13 23:18:01;;;;;;;9.43;5.47;;;16.20;57.80;;;;;;10434246;28;20029;-52
2022/12/13 23:23:01;;;;;;;6.45;4.43;;;16.20;57.70;;;;;;10447952;28;20071;-51
2022/12/13 23:28:02;;;;;;;7.55;4.65;;;16.20;57.70;;;;;;10448215;28;20021;-52
2022/12/13 23:33:03;;;;;;;7.18;5.03;;;16.20;57.60;;;;;;10449470;28;20031;-52
2022/12/13 23:38:03;;;;;;;5.28;3.75;;;16.20;57.70;;;;;;10405439;28;20108;-51
2022/12/13 23:43:04;;;;;;;4.80;3.72;;;16.20;57.70;;;;;;10431307;28;20442;-52
2022/12/13 23:48:05;;;;;;;7.28;5.00;;;16.20;57.70;;;;;;10420723;28;20044;-51
2022/12/13 23:53:06;;;;;;;5.53;3.97;;;16.20;57.50;;;;;;10447758;28;20035;-53
2022/12/13 23:58:06;;;;;;;5.80;3.92;;;16.20;57.50;;;;;;10438882;28;20123;-52
